< < Back
Terminal Aerodrome Forecast


Current Version              Previous Versions:   1  2  3  4  5  6  7  8  9  

Terminal Aerodrome Forecast

240
FTUS42 KGSP 222300
TAFGSP
TAF
KGSP 222334Z 2300/2324 25006KT P6SM BKN250
     FM230300 28006KT P6SM SCT250
     FM230900 34005KT P6SM SKC
     FM231500 35011KT P6SM SKC=

Latest METAR

170
SAUS70 KWBC 232156
MTRGSP
METAR KGSP 232153Z 03006KT 10SM CLR 26/M05 A2984 RMK AO2 SLP095
T02611050


USA.gov is the U.S. government's official web portal to all federal, state and local government web resources and services.